createdAt,value
2023-05-09T00:00:20.313Z,17.82
2023-05-09T00:02:48.688Z,17.78
2023-05-09T00:05:17.476Z,17.77
2023-05-09T00:07:45.537Z,17.77
2023-05-09T00:10:15.259Z,17.77
2023-05-09T00:12:44.258Z,17.78
2023-05-09T00:15:13.192Z,17.78
2023-05-09T00:17:41.303Z,17.77
2023-05-09T00:20:12.509Z,17.74
2023-05-09T00:22:41.839Z,17.74
2023-05-09T00:25:11.996Z,17.74
2023-05-09T00:27:41.785Z,17.73
2023-05-09T00:30:10.806Z,17.67
2023-05-09T00:32:40.373Z,17.65
2023-05-09T00:35:10.243Z,17.63
2023-05-09T00:37:38.366Z,17.55
2023-05-09T00:40:09.447Z,17.46
2023-05-09T00:42:37.893Z,17.38
2023-05-09T00:45:08.566Z,17.33
2023-05-09T00:47:36.697Z,17.27
2023-05-09T00:50:05.265Z,17.21
2023-05-09T00:52:35.176Z,17.17
2023-05-09T00:55:03.497Z,17.11
2023-05-09T00:57:31.400Z,17.05
2023-05-09T00:59:59.260Z,17.05
2023-05-09T01:02:29.454Z,16.97
2023-05-09T01:04:58.602Z,16.91
2023-05-09T01:07:36.087Z,16.90
2023-05-09T01:10:11.047Z,16.87
2023-05-09T01:12:47.871Z,16.83
2023-05-09T01:15:25.155Z,16.84
2023-05-09T01:17:59.645Z,16.82
2023-05-09T01:20:33.839Z,16.84
2023-05-09T01:23:27.002Z,16.82
2023-05-09T01:26:04.739Z,16.81
2023-05-09T01:28:45.866Z,16.79
2023-05-09T01:31:17.354Z,16.79
2023-05-09T01:33:47.919Z,16.80
2023-05-09T01:36:18.493Z,16.79
2023-05-09T01:38:50.038Z,16.82
2023-05-09T01:41:20.058Z,16.85
2023-05-09T01:43:50.836Z,16.88
2023-05-09T01:46:22.064Z,16.88
2023-05-09T01:48:51.715Z,16.95
2023-05-09T01:51:21.676Z,17.02
2023-05-09T01:53:51.368Z,17.04
2023-05-09T01:56:21.654Z,17.04
2023-05-09T01:58:51.338Z,17.07
2023-05-09T02:01:21.964Z,17.11
2023-05-09T02:03:52.615Z,17.15
2023-05-09T02:06:23.304Z,17.22
2023-05-09T02:08:52.266Z,17.27
2023-05-09T02:11:20.182Z,17.32
2023-05-09T02:13:48.227Z,17.32
2023-05-09T02:16:17.318Z,17.33
2023-05-09T02:18:47.161Z,17.36
2023-05-09T02:21:15.288Z,17.33
2023-05-09T02:23:43.279Z,17.36
2023-05-09T02:26:11.676Z,17.32
2023-05-09T02:28:40.945Z,17.34
2023-05-09T02:31:11.118Z,17.29
2023-05-09T02:33:40.283Z,17.31
2023-05-09T02:36:10.968Z,17.34
2023-05-09T02:38:39.103Z,17.33
2023-05-09T02:41:07.330Z,17.40
2023-05-09T02:43:35.395Z,17.40
2023-05-09T02:46:03.696Z,17.43
2023-05-09T02:48:31.677Z,17.43
2023-05-09T02:50:59.713Z,17.46
2023-05-09T02:53:29.385Z,17.51
2023-05-09T02:55:57.427Z,17.57
2023-05-09T02:58:25.530Z,17.59
2023-05-09T03:00:53.789Z,17.63
2023-05-09T03:03:22.539Z,17.60
2023-05-09T03:05:50.792Z,17.65
2023-05-09T03:08:18.874Z,17.67
2023-05-09T03:10:48.952Z,17.69
2023-05-09T03:13:17.090Z,17.74
2023-05-09T03:15:45.201Z,17.74
2023-05-09T03:18:13.266Z,17.79
2023-05-09T03:20:41.330Z,17.81
2023-05-09T03:23:10.183Z,17.85
2023-05-09T03:25:38.263Z,17.89
2023-05-09T03:28:08.232Z,17.88
2023-05-09T03:30:36.778Z,17.93
2023-05-09T03:33:06.403Z,17.92
2023-05-09T03:35:34.539Z,17.97
2023-05-09T03:38:02.625Z,17.93
2023-05-09T03:40:30.689Z,17.96
2023-05-09T03:42:58.739Z,17.96
2023-05-09T03:45:28.235Z,17.98
2023-05-09T03:47:56.385Z,17.99
2023-05-09T03:50:24.505Z,18.01
2023-05-09T03:52:52.513Z,18.01
2023-05-09T03:55:20.573Z,18.04
2023-05-09T03:57:48.727Z,18.03
2023-05-09T04:00:17.535Z,18.05
2023-05-09T04:02:47.510Z,18.06
2023-05-09T04:05:16.214Z,18.09
2023-05-09T04:07:44.784Z,18.08
2023-05-09T04:10:13.300Z,18.08
2023-05-09T04:12:42.013Z,18.08
2023-05-09T04:15:11.434Z,18.10
2023-05-09T04:17:39.699Z,18.11
2023-05-09T04:20:11.219Z,18.09
2023-05-09T04:22:39.169Z,18.08
2023-05-09T04:25:08.571Z,18.10
2023-05-09T04:27:36.537Z,18.12
2023-05-09T04:30:05.207Z,18.13
2023-05-09T04:32:33.156Z,18.14
2023-05-09T04:35:01.410Z,18.14
2023-05-09T04:37:31.574Z,18.14
2023-05-09T04:39:59.970Z,18.14
2023-05-09T04:42:28.036Z,18.14
2023-05-09T04:44:56.105Z,18.14
2023-05-09T04:47:24.154Z,18.16
2023-05-09T04:49:52.263Z,18.15
2023-05-09T04:52:20.485Z,18.13
2023-05-09T04:54:49.961Z,18.17
2023-05-09T04:57:19.066Z,18.17
2023-05-09T04:59:47.236Z,18.14
2023-05-09T05:02:20.529Z,18.20
2023-05-09T05:05:21.902Z,18.14
2023-05-09T05:07:53.629Z,18.17
2023-05-09T05:11:19.642Z,18.10
2023-05-09T05:14:13.276Z,18.06
2023-05-09T05:16:41.624Z,18.04
2023-05-09T05:19:10.423Z,18.06
2023-05-09T05:21:39.090Z,18.07
2023-05-09T05:24:07.964Z,18.06
2023-05-09T05:28:59.276Z,18.08
2023-05-09T05:30:18.697Z,18.10
2023-05-09T05:32:47.235Z,18.07
2023-05-09T05:35:18.442Z,18.05
2023-05-09T05:41:57.642Z,18.00
2023-05-09T05:44:53.192Z,18.01
2023-05-09T05:47:24.314Z,18.02
2023-05-09T05:49:54.021Z,17.97
2023-05-09T05:52:24.065Z,17.91
2023-05-09T05:54:52.330Z,17.83
2023-05-09T05:57:29.203Z,17.73
2023-05-09T05:59:57.564Z,17.68
2023-05-09T06:02:27.339Z,17.67
2023-05-09T06:04:56.129Z,17.60
2023-05-09T06:07:24.389Z,17.63
2023-05-09T06:09:53.081Z,17.60
2023-05-09T06:12:27.991Z,17.58
2023-05-09T06:14:57.192Z,17.53
2023-05-09T06:17:27.290Z,17.48
2023-05-09T06:19:55.659Z,17.43
2023-05-09T06:22:23.679Z,17.38
2023-05-09T06:24:51.648Z,17.32
2023-05-09T06:27:19.861Z,17.29
2023-05-09T06:29:47.991Z,17.32
2023-05-09T06:32:18.725Z,17.32
2023-05-09T06:34:48.319Z,17.33
2023-05-09T06:37:16.316Z,17.34
2023-05-09T06:39:44.386Z,17.36
2023-05-09T06:42:12.304Z,17.40
2023-05-09T06:44:40.471Z,17.48
2023-05-09T06:47:08.473Z,17.55
2023-05-09T06:49:36.914Z,17.56
2023-05-09T06:52:06.387Z,17.62
2023-05-09T06:54:34.415Z,17.64
2023-05-09T06:57:02.446Z,17.67
2023-05-09T06:59:30.352Z,17.71
2023-05-09T07:01:58.947Z,17.69
2023-05-09T07:04:27.108Z,17.69
2023-05-09T07:06:55.039Z,17.68
2023-05-09T07:09:27.969Z,17.62
2023-05-09T07:11:56.144Z,17.61
2023-05-09T07:14:24.103Z,17.60
2023-05-09T07:16:53.700Z,17.66
2023-05-09T07:19:23.302Z,17.67
2023-05-09T07:21:51.314Z,17.68
2023-05-09T07:24:19.374Z,17.70
2023-05-09T07:26:48.973Z,17.68
2023-05-09T07:29:17.695Z,17.72
2023-05-09T07:31:45.961Z,17.71
2023-05-09T07:34:14.099Z,17.77
2023-05-09T07:36:42.171Z,17.78
2023-05-09T07:39:10.819Z,17.79
2023-05-09T07:41:38.936Z,17.75
2023-05-09T07:44:09.606Z,17.81
2023-05-09T07:46:38.652Z,17.80
2023-05-09T07:49:06.726Z,17.79
2023-05-09T07:51:34.810Z,17.82
2023-05-09T07:54:02.863Z,17.92
2023-05-09T07:56:31.033Z,17.98
2023-05-09T07:58:59.019Z,18.00
2023-05-09T08:01:28.417Z,18.00
2023-05-09T08:03:56.423Z,17.95
2023-05-09T08:06:24.762Z,17.91
2023-05-09T08:08:52.646Z,17.86
2023-05-09T08:11:20.585Z,17.84
2023-05-09T08:13:48.455Z,17.79
2023-05-09T08:16:18.101Z,17.71
2023-05-09T08:18:47.580Z,17.70
2023-05-09T08:21:15.578Z,17.65
2023-05-09T08:23:43.482Z,17.71
2023-05-09T08:26:11.376Z,17.75
2023-05-09T08:28:39.380Z,17.73
2023-05-09T08:31:07.341Z,17.70
2023-05-09T08:33:35.325Z,17.71
2023-05-09T08:36:05.009Z,17.74
2023-05-09T08:38:32.859Z,17.71
2023-05-09T08:41:04.075Z,17.66
2023-05-09T08:43:34.533Z,17.59
2023-05-09T08:46:05.843Z,17.58
2023-05-09T08:48:37.670Z,17.59
2023-05-09T08:51:08.657Z,17.64
2023-05-09T08:53:37.225Z,17.73
2023-05-09T08:56:05.557Z,17.75
2023-05-09T08:58:34.648Z,17.86
2023-05-09T09:01:06.491Z,17.98
2023-05-09T09:03:34.795Z,18.13
2023-05-09T09:06:03.080Z,18.26
2023-05-09T09:08:32.496Z,18.33
2023-05-09T09:11:00.549Z,18.40
2023-05-09T09:13:29.856Z,18.52
2023-05-09T09:16:00.444Z,18.59
2023-05-09T09:18:31.290Z,18.54
2023-05-09T09:21:06.275Z,18.46
2023-05-09T09:23:35.976Z,18.40
2023-05-09T09:26:04.984Z,18.39
2023-05-09T09:28:33.030Z,18.38
2023-05-09T09:31:01.393Z,18.39
2023-05-09T09:33:30.739Z,18.39
2023-05-09T09:35:59.835Z,18.40
2023-05-09T09:38:28.046Z,18.37
2023-05-09T09:40:58.426Z,18.33
2023-05-09T09:43:29.864Z,18.37
2023-05-09T09:45:58.308Z,18.35
2023-05-09T09:48:26.915Z,18.36
2023-05-09T09:50:57.109Z,18.37
2023-05-09T09:53:30.255Z,18.37
2023-05-09T09:56:00.126Z,18.33
2023-05-09T09:58:28.383Z,18.33
2023-05-09T10:01:07.785Z,18.36
2023-05-09T10:03:40.958Z,18.43
2023-05-09T10:06:12.381Z,18.42
2023-05-09T10:08:40.549Z,18.43
2023-05-09T10:11:10.984Z,18.47
2023-05-09T10:13:39.408Z,18.56
2023-05-09T10:16:09.805Z,18.64
2023-05-09T10:18:39.050Z,18.63
2023-05-09T10:21:11.152Z,18.69
2023-05-09T10:23:43.869Z,18.63
2023-05-09T10:26:18.663Z,18.71
2023-05-09T10:28:49.085Z,18.75
2023-05-09T10:31:23.033Z,18.78
2023-05-09T10:33:52.247Z,18.78
2023-05-09T10:36:21.844Z,18.78
2023-05-09T10:38:50.984Z,18.78
2023-05-09T10:41:22.055Z,18.75
2023-05-09T10:43:50.207Z,18.77
2023-05-09T10:46:18.840Z,18.88
2023-05-09T10:48:48.039Z,18.93
2023-05-09T10:51:16.499Z,18.95
2023-05-09T10:53:46.067Z,19.08
2023-05-09T10:56:26.732Z,19.23
2023-05-09T10:58:55.194Z,19.22
2023-05-09T11:01:35.615Z,19.23
2023-05-09T11:04:09.816Z,19.32
2023-05-09T11:06:49.555Z,19.52
2023-05-09T11:09:28.898Z,19.76
2023-05-09T11:11:59.568Z,19.83
2023-05-09T11:14:31.786Z,19.87
2023-05-09T11:17:01.024Z,19.83
2023-05-09T11:19:36.806Z,19.91
2023-05-09T11:22:14.174Z,19.80
2023-05-09T11:24:47.012Z,19.74
2023-05-09T11:27:21.513Z,19.71
2023-05-09T11:29:52.769Z,19.68
2023-05-09T11:32:21.594Z,19.66
2023-05-09T11:34:51.111Z,19.68
2023-05-09T11:37:19.456Z,19.67
2023-05-09T11:39:58.855Z,19.84
2023-05-09T11:42:29.465Z,19.92
2023-05-09T11:44:58.592Z,20.02
2023-05-09T11:47:28.881Z,20.07
2023-05-09T11:49:56.901Z,20.16
2023-05-09T11:52:25.822Z,20.19
2023-05-09T11:54:53.750Z,20.20
2023-05-09T11:57:22.320Z,20.24
2023-05-09T11:59:52.262Z,20.41
2023-05-09T12:02:20.318Z,20.53
2023-05-09T12:04:48.547Z,20.62
2023-05-09T12:07:17.256Z,20.74
2023-05-09T12:09:45.271Z,20.75
2023-05-09T12:12:14.426Z,20.66
2023-05-09T12:14:42.730Z,20.57
2023-05-09T12:17:12.295Z,20.57
2023-05-09T12:19:40.501Z,20.68
2023-05-09T12:22:09.950Z,20.88
2023-05-09T12:24:38.210Z,21.14
2023-05-09T12:27:07.945Z,21.32
2023-05-09T12:29:36.630Z,21.34
2023-05-09T12:32:04.712Z,21.32
2023-05-09T12:34:34.259Z,21.24
2023-05-09T12:37:03.759Z,21.26
2023-05-09T12:39:31.882Z,21.38
2023-05-09T12:42:01.960Z,21.38
2023-05-09T12:44:30.367Z,21.37
2023-05-09T12:46:59.784Z,21.27
2023-05-09T12:49:28.272Z,21.18
2023-05-09T12:52:01.662Z,21.04
2023-05-09T12:54:31.234Z,20.85
2023-05-09T12:56:59.783Z,20.59
2023-05-09T12:59:29.033Z,20.30
2023-05-09T13:01:59.040Z,20.07
2023-05-09T13:04:28.150Z,19.90
2023-05-09T13:07:00.054Z,19.67
2023-05-09T13:09:28.717Z,19.44
2023-05-09T13:11:56.889Z,19.30
2023-05-09T13:14:25.340Z,19.25
2023-05-09T13:16:53.288Z,19.07
2023-05-09T13:19:21.563Z,18.96
2023-05-09T13:21:49.609Z,18.83
2023-05-09T13:24:18.962Z,18.72
2023-05-09T13:26:46.888Z,18.61
2023-05-09T13:29:15.079Z,18.56
2023-05-09T13:31:43.182Z,18.51
2023-05-09T13:34:11.115Z,18.52
2023-05-09T13:36:38.935Z,18.54
2023-05-09T13:39:06.743Z,18.57
2023-05-09T13:41:38.150Z,18.69
2023-05-09T13:44:06.577Z,18.86
2023-05-09T13:46:35.080Z,19.07
2023-05-09T13:49:03.075Z,19.36
2023-05-09T13:51:31.039Z,19.67
2023-05-09T13:53:58.884Z,20.01
2023-05-09T13:56:26.868Z,20.25
2023-05-09T13:58:56.113Z,20.54
2023-05-09T14:01:24.194Z,20.72
2023-05-09T14:03:52.542Z,20.89
2023-05-09T14:06:20.542Z,20.99
2023-05-09T14:08:48.567Z,20.90
2023-05-09T14:11:16.541Z,20.56
2023-05-09T14:13:44.717Z,20.29
2023-05-09T14:16:14.685Z,20.10
2023-05-09T14:18:42.725Z,19.87
2023-05-09T14:21:10.725Z,19.74
2023-05-09T14:23:38.633Z,19.66
2023-05-09T14:26:06.731Z,19.76
2023-05-09T14:28:34.637Z,19.80
2023-05-09T14:31:03.342Z,19.78
2023-05-09T14:33:34.929Z,19.86
2023-05-09T14:36:04.206Z,19.82
2023-05-09T14:38:33.369Z,19.71
2023-05-09T14:41:02.382Z,19.63
2023-05-09T14:43:30.454Z,19.54
2023-05-09T14:45:58.509Z,19.41
2023-05-09T14:48:26.525Z,19.31
2023-05-09T14:50:57.042Z,19.23
2023-05-09T14:53:25.473Z,19.11
2023-05-09T14:55:53.485Z,19.01
2023-05-09T14:58:22.288Z,18.88
2023-05-09T15:00:53.027Z,18.71
2023-05-09T15:03:21.206Z,18.57
2023-05-09T15:05:50.496Z,18.46
2023-05-09T15:08:20.101Z,18.32
2023-05-09T15:10:48.562Z,18.13
2023-05-09T15:13:16.715Z,18.00
2023-05-09T15:15:44.665Z,17.93
2023-05-09T15:18:13.451Z,17.85
2023-05-09T15:20:41.951Z,17.72
2023-05-09T15:23:10.116Z,17.62
2023-05-09T15:25:41.569Z,17.63
2023-05-09T15:28:09.520Z,17.71
2023-05-09T15:30:39.261Z,17.79
2023-05-09T15:33:07.325Z,17.81
2023-05-09T15:35:35.366Z,17.82
2023-05-09T15:38:03.437Z,17.83
2023-05-09T15:40:31.532Z,17.74
2023-05-09T15:43:07.392Z,17.71
2023-05-09T15:45:37.911Z,17.74
2023-05-09T15:48:06.520Z,17.80
2023-05-09T15:50:34.514Z,17.84
2023-05-09T15:53:02.468Z,17.95
2023-05-09T15:55:32.853Z,18.05
2023-05-09T15:58:03.060Z,18.22
2023-05-09T16:00:31.243Z,18.41
2023-05-09T16:02:59.697Z,18.67
2023-05-09T16:05:27.996Z,18.83
2023-05-09T16:07:56.101Z,19.03
2023-05-09T16:10:24.144Z,19.22
2023-05-09T16:12:52.265Z,19.35
2023-05-09T16:15:22.785Z,19.38
2023-05-09T16:17:50.860Z,19.42
2023-05-09T16:20:18.977Z,19.30
2023-05-09T16:22:46.941Z,19.20
2023-05-09T16:25:15.011Z,18.99
2023-05-09T16:27:43.200Z,18.84
2023-05-09T16:30:11.967Z,18.73
2023-05-09T16:32:42.455Z,18.86
2023-05-09T16:35:11.032Z,18.98
2023-05-09T16:37:39.532Z,19.06
2023-05-09T16:40:08.498Z,19.15
2023-05-09T16:42:36.700Z,19.15
2023-05-09T16:45:05.460Z,19.04
2023-05-09T16:47:33.676Z,18.80
2023-05-09T16:50:03.163Z,18.73
2023-05-09T16:52:31.384Z,18.52
2023-05-09T16:55:01.350Z,18.32
2023-05-09T16:57:29.332Z,18.17
2023-05-09T16:59:58.558Z,18.04
2023-05-09T17:02:26.707Z,17.99
2023-05-09T17:04:54.939Z,18.08
2023-05-09T17:07:24.465Z,18.16
2023-05-09T17:09:55.265Z,18.21
2023-05-09T17:12:23.594Z,18.23
2023-05-09T17:14:51.674Z,18.34
2023-05-09T17:17:19.949Z,18.42
2023-05-09T17:19:48.732Z,18.45
2023-05-09T17:22:17.120Z,18.55
2023-05-09T17:24:46.744Z,18.72
2023-05-09T17:27:15.273Z,18.82
2023-05-09T17:29:43.409Z,18.85
2023-05-09T17:32:12.334Z,18.93
2023-05-09T17:34:41.003Z,18.94
2023-05-09T17:40:00.407Z,18.78
2023-05-09T17:42:32.883Z,18.66
2023-05-09T17:45:01.037Z,18.58
2023-05-09T17:47:29.238Z,18.45
2023-05-09T17:49:57.498Z,18.44
2023-05-09T17:52:25.792Z,18.44
2023-05-09T17:54:55.486Z,18.46
2023-05-09T17:57:23.672Z,18.43
2023-05-09T17:59:52.313Z,18.45
2023-05-09T18:02:24.066Z,18.51
2023-05-09T18:04:53.635Z,18.59
2023-05-09T18:07:21.625Z,18.61
2023-05-09T18:09:49.813Z,18.65
2023-05-09T18:12:19.418Z,18.66
2023-05-09T18:14:47.762Z,18.54
2023-05-09T18:17:15.967Z,18.43
2023-05-09T18:19:43.965Z,18.28
2023-05-09T18:22:12.113Z,18.27
2023-05-09T18:24:40.123Z,18.25
2023-05-09T18:27:08.193Z,18.24
2023-05-09T18:29:37.856Z,18.14
2023-05-09T18:32:06.922Z,18.04
2023-05-09T18:34:34.920Z,17.96
2023-05-09T18:37:03.011Z,17.89
2023-05-09T18:39:31.093Z,17.82
2023-05-09T18:41:59.152Z,17.83
2023-05-09T18:44:27.253Z,18.01
2023-05-09T18:46:58.038Z,18.12
2023-05-09T18:49:26.389Z,18.19
2023-05-09T18:51:55.144Z,18.35
2023-05-09T18:54:23.523Z,18.66
2023-05-09T18:56:51.552Z,18.72
2023-05-09T18:59:19.621Z,18.62
2023-05-09T19:01:47.566Z,18.46
2023-05-09T19:04:19.667Z,18.34
2023-05-09T19:06:47.986Z,18.19
2023-05-09T19:09:15.985Z,18.12
2023-05-09T19:11:45.435Z,17.93
2023-05-09T19:14:13.573Z,17.82
2023-05-09T19:16:43.047Z,17.73
2023-05-09T19:19:11.360Z,17.67
2023-05-09T19:21:41.125Z,17.64
2023-05-09T19:24:09.878Z,17.66
2023-05-09T19:26:38.198Z,17.56
2023-05-09T19:29:08.262Z,17.48
2023-05-09T19:31:37.347Z,17.39
2023-05-09T19:34:06.122Z,17.34
2023-05-09T19:36:34.236Z,17.19
2023-05-09T19:39:05.276Z,17.13
2023-05-09T19:41:34.112Z,17.10
2023-05-09T19:44:02.325Z,17.03
2023-05-09T19:46:30.796Z,16.98
2023-05-09T19:48:58.832Z,16.96
2023-05-09T19:51:27.060Z,16.91
2023-05-09T19:53:56.310Z,16.93
2023-05-09T19:56:25.929Z,16.95
2023-05-09T19:58:55.021Z,16.93
2023-05-09T20:01:23.169Z,16.93
2023-05-09T20:03:52.330Z,16.88
2023-05-09T20:06:20.803Z,16.86
2023-05-09T20:08:51.414Z,16.79
2023-05-09T20:11:19.917Z,16.80
2023-05-09T20:13:49.456Z,16.79
2023-05-09T20:16:17.834Z,16.79
2023-05-09T20:18:46.061Z,16.79
2023-05-09T20:21:14.861Z,16.80
2023-05-09T20:23:42.983Z,16.83
2023-05-09T20:26:11.424Z,16.78
2023-05-09T20:28:39.699Z,16.78
2023-05-09T20:31:09.195Z,16.77
2023-05-09T20:33:37.386Z,16.77
2023-05-09T20:36:09.952Z,16.70
2023-05-09T20:38:38.749Z,16.71
2023-05-09T20:41:06.805Z,16.68
2023-05-09T20:43:34.877Z,16.69
2023-05-09T20:46:02.962Z,16.71
2023-05-09T20:48:32.777Z,16.69
2023-05-09T20:51:00.900Z,16.70
2023-05-09T20:53:31.759Z,16.70
2023-05-09T20:56:00.144Z,16.74
2023-05-09T20:58:28.301Z,16.75
2023-05-09T21:00:56.524Z,16.76
2023-05-09T21:03:24.687Z,16.73
2023-05-09T21:05:55.246Z,16.71
2023-05-09T21:08:24.143Z,16.73
2023-05-09T21:10:54.407Z,16.72
2023-05-09T21:13:22.652Z,16.73
2023-05-09T21:15:51.294Z,16.74
2023-05-09T21:18:20.237Z,16.70
2023-05-09T21:20:48.665Z,16.68
2023-05-09T21:23:19.120Z,16.64
2023-05-09T21:25:47.349Z,16.58
2023-05-09T21:28:17.463Z,16.55
2023-05-09T21:30:45.725Z,16.55
2023-05-09T21:33:13.947Z,16.50
2023-05-09T21:35:41.955Z,16.50
2023-05-09T21:38:10.243Z,16.46
2023-05-09T21:40:40.708Z,16.46
2023-05-09T21:43:09.077Z,16.42
2023-05-09T21:45:37.317Z,16.40
2023-05-09T21:48:05.872Z,16.40
2023-05-09T21:50:33.984Z,16.34
2023-05-09T21:53:01.984Z,16.33
2023-05-09T21:55:29.920Z,16.36
2023-05-09T21:57:59.330Z,16.35
2023-05-09T22:00:27.350Z,16.38
2023-05-09T22:02:55.410Z,16.38
2023-05-09T22:05:24.872Z,16.41
2023-05-09T22:07:52.852Z,16.39
2023-05-09T22:10:22.384Z,16.39
2023-05-09T22:12:50.591Z,16.39
2023-05-09T22:15:20.474Z,16.38
2023-05-09T22:17:48.543Z,16.39
2023-05-09T22:20:17.208Z,16.37
2023-05-09T22:22:45.690Z,16.43
2023-05-09T22:25:13.676Z,16.48
2023-05-09T22:27:41.776Z,16.55
2023-05-09T22:30:12.503Z,16.58
2023-05-09T22:32:42.351Z,16.58
2023-05-09T22:35:12.008Z,16.61
2023-05-09T22:37:40.354Z,16.67
2023-05-09T22:40:09.619Z,16.65
2023-05-09T22:42:37.644Z,16.68
2023-05-09T22:45:06.601Z,16.66
2023-05-09T22:47:34.907Z,16.66
2023-05-09T22:50:04.353Z,16.67
2023-05-09T22:52:32.262Z,16.66
2023-05-09T22:55:00.229Z,16.69
2023-05-09T22:57:28.139Z,16.72
2023-05-09T22:59:56.597Z,16.77
2023-05-09T23:02:24.712Z,16.79
2023-05-09T23:04:52.850Z,16.78
2023-05-09T23:07:22.401Z,16.78
2023-05-09T23:09:50.922Z,16.77
2023-05-09T23:12:19.926Z,16.78
2023-05-09T23:14:48.384Z,16.73
2023-05-09T23:17:16.470Z,16.75
2023-05-09T23:19:44.961Z,16.76
2023-05-09T23:22:13.959Z,16.80
2023-05-09T23:24:43.799Z,16.79
2023-05-09T23:27:11.960Z,16.86
2023-05-09T23:29:39.987Z,16.84
2023-05-09T23:32:08.003Z,16.85
2023-05-09T23:34:37.016Z,16.84
2023-05-09T23:37:05.373Z,16.86
2023-05-09T23:39:33.999Z,16.86
2023-05-09T23:42:04.179Z,16.84
2023-05-09T23:44:32.329Z,16.83
2023-05-09T23:47:02.242Z,16.78
2023-05-09T23:49:30.344Z,16.77
2023-05-09T23:51:58.357Z,16.79
2023-05-09T23:54:27.083Z,16.79
2023-05-09T23:56:56.416Z,16.78
2023-05-09T23:59:25.952Z,16.74
